Kezdőlap
METAR-TAF:

METAR-TAF

Repülőterek :

Sankt Gallen, Svájc

földrajzi szélesség: 47-29-06N, földrajzi hosszúság: 009-33-43E, magasság: 398 m

Jelenlegi meteorológiai megfigyelések

A jelentés 23 perccel ezelõtt készült, 08:20 UTC
Kelet-délkeleti szél 5 kt, keleti és dél-délkeleti között változik
Hőmérséklet -2°C
Páratartalom 80%
Légköri nyomás 1043 hPa
Látótávolság 10 km, vagy több
felhőtlen 1500 m magasságban, és nincs gomolyfelhõ

METAR: LSZR 200820Z 11005KT 080V150 CAVOK M02/M05 Q1043 NOSIG RMK E

Idő: 09:43 (08:43 UTC)

Előrejelzés

A jelentés 3 órával és 18 perccel ezelõtt készült, 05:25 UTC
Az előrejelzés 20-én 06 óra UTC és 20-én 15 óra UTC között érvényes
Kelet-északkeleti szél 6 kt
Látótávolság 10 km, vagy több
felhőtlen 1500 m magasságban, és nincs gomolyfelhõ
20-én 06 óra UTC és 20-én 15 óra UTC között ideiglenes
Kevés felhő 4000 lábon

TAF: LSZR 200525Z 2006/2015 07006KT CAVOK TEMPO 2006/2015 FEW040

Meteorológiai megfigyelések és előrejelzések több, mint 4000 repülőtéren (METAR és TAF jelentéseket).

A térképen piros és sárga pontok jelzik az elérhető meteorológiai állomásokat.

Mozgassa az egeret a pont fölött, hogy megjelenjen az állomás neve.

Azután kattintson az időjárási megfigyelések és előrejelzések megtekintéséhez.

A térkép megváltoztatása: kattintson a fekete keresztel jelölt zöld gombra ráközelítéshez, a vonallal jelölt zöld gombra távolításhoz, vagy a zöld nyilakra a szomszédos térképek eléréséhez.


METAR-TAF: